Time;durP1;ratioP1;P1;durP2;ratioP2;P2;SDS_P1;SDS_P2;PMS_P1;PMS_P2;Temp;Humidity;BMP_temperature;BMP_pressure;BME280_temperature;BME280_humidity;BME280_pressure;Samples;Min_cycle;Max_cycle;Signal;HPM_P1;HPM_P2
2023/07/30 00:01:20;;;;;;;24.42;7.45;;;19.70;99.90;;;;;;4934379;29;20039;-67
2023/07/30 00:03:46;;;;;;;41.30;9.85;;;19.50;99.90;;;;;;4917234;29;20039;-67
2023/07/30 00:06:11;;;;;;;28.17;7.45;;;19.30;99.90;;;;;;4917942;29;20467;-67
2023/07/30 00:08:37;;;;;;;36.38;8.05;;;19.30;99.90;;;;;;4934411;29;20044;-67
2023/07/30 00:11:02;;;;;;;31.83;6.53;;;19.30;99.90;;;;;;4934305;29;20488;-66
2023/07/30 00:13:28;;;;;;;25.25;5.95;;;19.40;99.90;;;;;;4934567;29;20044;-66
2023/07/30 00:15:54;;;;;;;25.25;6.65;;;19.20;99.90;;;;;;4934415;29;20046;-67
2023/07/30 00:18:19;;;;;;;24.55;7.15;;;19.40;99.90;;;;;;4934384;29;20044;-67
2023/07/30 00:20:45;;;;;;;30.73;7.07;;;19.20;99.90;;;;;;4916946;29;20496;-67
2023/07/30 00:23:11;;;;;;;29.00;7.35;;;19.10;99.90;;;;;;4917562;29;20044;-67
2023/07/30 00:25:37;;;;;;;26.92;6.32;;;19.50;99.90;;;;;;4934181;29;20094;-67
2023/07/30 00:28:02;;;;;;;32.78;7.13;;;19.30;99.90;;;;;;4917278;29;20078;-67
2023/07/30 00:30:28;;;;;;;29.67;7.25;;;19.30;99.90;;;;;;4917165;29;20044;-66
2023/07/30 00:32:53;;;;;;;32.58;6.68;;;19.20;99.90;;;;;;4938097;29;20094;-67
2023/07/30 00:35:19;;;;;;;24.20;6.97;;;19.80;99.90;;;;;;4921310;29;20043;-67
2023/07/30 00:37:45;;;;;;;26.13;7.82;;;19.40;99.90;;;;;;4939253;29;20042;-67
2023/07/30 00:40:11;;;;;;;25.92;6.90;;;19.20;99.90;;;;;;4920710;29;20048;-66
2023/07/30 00:42:37;;;;;;;27.95;7.18;;;19.50;99.90;;;;;;4920863;29;20047;-67
2023/07/30 00:45:03;;;;;;;32.65;6.93;;;19.30;99.90;;;;;;4920683;29;20036;-67
2023/07/30 00:47:29;;;;;;;25.35;6.38;;;19.30;99.90;;;;;;4937958;29;20083;-67
2023/07/30 00:49:55;;;;;;;23.20;6.18;;;19.50;99.90;;;;;;4920607;29;20075;-67
2023/07/30 00:52:21;;;;;;;30.27;6.32;;;19.30;99.90;;;;;;4920450;29;20058;-66
2023/07/30 00:54:48;;;;;;;30.48;7.22;;;20.20;99.90;;;;;;4920596;29;20046;-67
2023/07/30 00:57:16;;;;;;;26.00;6.82;;;19.40;99.90;;;;;;4920817;29;20507;-67
2023/07/30 00:59:42;;;;;;;26.80;6.68;;;19.60;99.90;;;;;;4937641;29;20054;-67
2023/07/30 01:02:08;;;;;;;23.90;6.00;;;19.30;99.90;;;;;;4920529;29;20063;-67
2023/07/30 01:04:37;;;;;;;36.55;7.38;;;19.60;99.90;;;;;;4937411;29;20039;-66
2023/07/30 01:07:03;;;;;;;26.55;6.82;;;19.30;99.90;;;;;;4937461;29;20127;-67
2023/07/30 01:09:28;;;;;;;21.63;6.40;;;19.40;99.90;;;;;;4937335;29;20434;-67
2023/07/30 01:11:55;;;;;;;22.98;6.00;;;19.40;99.90;;;;;;4920123;29;20051;-67
2023/07/30 01:14:22;;;;;;;20.73;5.80;;;19.30;99.90;;;;;;4920226;29;20063;-67
2023/07/30 01:16:49;;;;;;;28.40;6.28;;;19.20;99.90;;;;;;4937419;29;20047;-67
2023/07/30 01:19:15;;;;;;;23.42;6.32;;;19.30;99.90;;;;;;4937098;29;20435;-67
2023/07/30 01:21:40;;;;;;;20.65;6.22;;;19.00;99.90;;;;;;4919855;29;20521;-67
2023/07/30 01:24:06;;;;;;;26.00;7.55;;;19.30;99.90;;;;;;4937335;29;20084;-66
2023/07/30 01:26:56;;;;;;;22.52;6.75;;;19.10;99.90;;;;;;4937285;29;20499;-66
2023/07/30 01:29:40;;;;;;;33.60;7.85;;;19.30;99.90;;;;;;4937130;29;20044;-66
2023/07/30 01:32:10;;;;;;;19.52;6.07;;;19.40;99.90;;;;;;4920030;29;20480;-67
2023/07/30 01:34:37;;;;;;;17.08;4.82;;;19.20;99.90;;;;;;4937296;29;20048;-67
2023/07/30 01:37:05;;;;;;;21.92;5.78;;;19.30;99.90;;;;;;4937168;29;20122;-67
2023/07/30 01:39:33;;;;;;;23.33;6.05;;;19.30;99.90;;;;;;4919949;29;20119;-67
2023/07/30 01:41:59;;;;;;;25.75;5.63;;;19.40;99.90;;;;;;4919344;29;20091;-67
2023/07/30 01:44:24;;;;;;;23.80;6.50;;;19.10;99.90;;;;;;4936829;29;20578;-67
2023/07/30 01:46:50;;;;;;;15.90;5.53;;;18.90;99.90;;;;;;4936678;29;20036;-67
2023/07/30 01:49:15;;;;;;;19.98;6.38;;;19.00;99.90;;;;;;4919633;29;20122;-66
2023/07/30 01:51:41;;;;;;;16.83;5.30;;;19.00;99.90;;;;;;4919665;29;20086;-66
2023/07/30 01:54:06;;;;;;;22.63;6.85;;;18.80;99.90;;;;;;4922468;29;20044;-67
2023/07/30 01:56:32;;;;;;;24.25;6.07;;;19.10;99.90;;;;;;4920563;29;20563;-67
2023/07/30 01:58:58;;;;;;;18.42;5.82;;;19.10;99.90;;;;;;4936652;29;20067;-67
2023/07/30 02:01:23;;;;;;;16.75;5.22;;;18.50;99.90;;;;;;4936212;29;20134;-66
2023/07/30 02:03:49;;;;;;;18.50;6.30;;;18.80;99.90;;;;;;4936569;29;20143;-67
2023/07/30 02:06:14;;;;;;;20.33;6.80;;;18.70;99.90;;;;;;4919764;29;20047;-67
2023/07/30 02:08:40;;;;;;;21.63;6.35;;;18.70;99.90;;;;;;4919470;29;20045;-67
2023/07/30 02:11:05;;;;;;;17.75;6.10;;;18.50;99.90;;;;;;4919063;29;20106;-66
2023/07/30 02:13:31;;;;;;;27.02;7.22;;;18.70;99.90;;;;;;4936349;29;20042;-67
2023/07/30 02:15:57;;;;;;;20.40;6.43;;;19.40;99.90;;;;;;4919046;29;20555;-67
2023/07/30 02:18:22;;;;;;;20.08;6.13;;;18.60;99.90;;;;;;4936360;29;20046;-67
2023/07/30 02:20:48;;;;;;;23.75;7.22;;;;;;;;;;4936003;29;20537;-67
2023/07/30 02:23:16;;;;;;;20.50;6.88;;;18.50;99.90;;;;;;4936118;29;20106;-67
2023/07/30 02:25:42;;;;;;;19.38;6.38;;;18.30;99.90;;;;;;4918923;29;20056;-67
2023/07/30 02:28:08;;;;;;;24.02;7.15;;;18.40;99.90;;;;;;4919232;29;20058;-67
2023/07/30 02:30:34;;;;;;;22.83;7.00;;;18.20;99.90;;;;;;4935665;29;20040;-66
2023/07/30 02:32:59;;;;;;;21.75;5.93;;;18.50;99.90;;;;;;4936074;29;20123;-67
2023/07/30 02:35:25;;;;;;;24.33;6.68;;;18.50;99.90;;;;;;4919004;29;20186;-67
2023/07/30 02:37:51;;;;;;;23.02;7.53;;;18.40;99.90;;;;;;4918885;29;20555;-67
2023/07/30 02:40:16;;;;;;;21.60;6.53;;;18.50;99.90;;;;;;4935499;29;20119;-66
2023/07/30 02:42:42;;;;;;;24.52;7.60;;;18.50;99.90;;;;;;4918700;29;20035;-67
2023/07/30 02:45:08;;;;;;;24.75;6.75;;;18.40;99.90;;;;;;4935539;29;20172;-67
2023/07/30 02:47:34;;;;;;;14.40;5.68;;;;;;;;;;4935879;29;20048;-66
2023/07/30 02:50:00;;;;;;;20.75;6.30;;;18.10;99.90;;;;;;4935858;29;20039;-67
2023/07/30 02:52:25;;;;;;;25.50;6.65;;;18.30;99.90;;;;;;4935666;29;20503;-67
2023/07/30 02:54:51;;;;;;;26.05;6.63;;;18.30;99.90;;;;;;4917808;29;20067;-67
2023/07/30 02:57:16;;;;;;;21.17;6.72;;;18.40;99.90;;;;;;4935572;29;20098;-67
2023/07/30 02:59:42;;;;;;;18.88;5.70;;;18.20;99.90;;;;;;4918399;29;20091;-67
2023/07/30 03:02:08;;;;;;;12.77;5.38;;;;;;;;;;4935374;29;20046;-67
2023/07/30 03:04:34;;;;;;;15.82;5.68;;;18.10;99.90;;;;;;4935394;29;20043;-67
2023/07/30 03:07:00;;;;;;;21.33;6.75;;;18.30;99.90;;;;;;4935431;29;20134;-67
2023/07/30 03:09:26;;;;;;;18.63;6.45;;;;;;;;;;4918280;29;20408;-66
2023/07/30 03:11:52;;;;;;;21.55;6.10;;;18.30;99.90;;;;;;4938512;29;20050;-66
2023/07/30 03:14:20;;;;;;;22.30;5.88;;;18.30;99.90;;;;;;4935958;29;20114;-66
2023/07/30 03:16:49;;;;;;;16.95;5.65;;;18.10;99.90;;;;;;4918398;29;20086;-67
2023/07/30 03:19:15;;;;;;;23.20;6.55;;;18.10;99.90;;;;;;4935144;29;20043;-66
2023/07/30 03:21:41;;;;;;;18.63;5.57;;;18.00;99.90;;;;;;4934914;29;20461;-66
2023/07/30 03:24:06;;;;;;;21.00;6.63;;;18.10;99.90;;;;;;4934985;29;20039;-66
2023/07/30 03:26:32;;;;;;;23.85;6.20;;;18.20;99.90;;;;;;4917921;29;20078;-67
2023/07/30 03:28:57;;;;;;;22.33;5.57;;;18.20;99.90;;;;;;4917896;29;20044;-67
2023/07/30 03:31:23;;;;;;;19.08;6.60;;;18.30;99.90;;;;;;4917599;29;20050;-67
2023/07/30 03:33:49;;;;;;;16.90;5.32;;;18.30;99.90;;;;;;4935061;29;20070;-67
2023/07/30 03:36:14;;;;;;;21.00;6.00;;;18.40;99.90;;;;;;4918017;29;20051;-67
2023/07/30 03:38:43;;;;;;;19.52;5.47;;;18.30;99.90;;;;;;4918277;29;20082;-67
2023/07/30 03:41:10;;;;;;;22.70;6.18;;;18.50;99.90;;;;;;4917612;29;20058;-66
2023/07/30 03:43:36;;;;;;;22.70;6.57;;;18.20;99.90;;;;;;4917862;29;20047;-67
2023/07/30 03:46:02;;;;;;;22.60;5.53;;;18.40;99.90;;;;;;4917651;29;20044;-67
2023/07/30 03:48:28;;;;;;;23.38;5.28;;;18.40;99.90;;;;;;4917815;29;20046;-67
2023/07/30 03:50:54;;;;;;;18.88;5.13;;;18.20;99.90;;;;;;4917398;29;20126;-66
2023/07/30 03:53:20;;;;;;;25.08;5.65;;;18.30;99.90;;;;;;4934705;29;20414;-66
2023/07/30 03:55:46;;;;;;;23.08;5.35;;;;;;;;;;4917295;29;20048;-67
2023/07/30 03:58:12;;;;;;;25.20;5.97;;;18.70;99.90;;;;;;4934729;29;20407;-67
2023/07/30 04:00:38;;;;;;;22.02;5.68;;;18.30;99.90;;;;;;4917122;29;20500;-66
2023/07/30 04:03:04;;;;;;;21.17;5.45;;;18.70;99.90;;;;;;4917480;29;20087;-66
2023/07/30 04:05:30;;;;;;;19.40;5.35;;;18.40;99.90;;;;;;4917343;29;20046;-66
2023/07/30 04:07:56;;;;;;;24.25;4.80;;;18.40;99.90;;;;;;4917718;29;20047;-67
2023/07/30 04:10:21;;;;;;;21.95;5.15;;;18.60;99.90;;;;;;4916981;29;20058;-66
2023/07/30 04:12:47;;;;;;;14.57;5.15;;;;;;;;;;4934392;29;20051;-66
2023/07/30 04:15:14;;;;;;;20.58;4.90;;;18.60;99.90;;;;;;4917283;29;20126;-67
2023/07/30 04:17:40;;;;;;;18.42;4.10;;;18.80;99.90;;;;;;4917645;29;20035;-66
2023/07/30 04:20:06;;;;;;;15.95;3.53;;;18.60;99.90;;;;;;4917259;29;20050;-67
2023/07/30 04:22:33;;;;;;;17.02;3.90;;;18.60;99.90;;;;;;4934188;29;20385;-66
2023/07/30 04:24:58;;;;;;;17.33;3.40;;;18.80;99.90;;;;;;4934242;29;20451;-67
2023/07/30 04:27:24;;;;;;;16.40;4.15;;;18.60;99.90;;;;;;4934244;29;20042;-67
2023/07/30 04:29:49;;;;;;;10.23;3.20;;;18.80;99.90;;;;;;4917375;29;20051;-66
2023/07/30 04:32:15;;;;;;;13.40;3.28;;;19.20;99.90;;;;;;4917017;29;20083;-66
2023/07/30 04:34:40;;;;;;;13.93;2.97;;;18.80;99.90;;;;;;4934187;29;20440;-67
2023/07/30 04:37:06;;;;;;;11.73;3.50;;;18.70;99.90;;;;;;4917260;29;20067;-66
2023/07/30 04:39:32;;;;;;;13.38;2.85;;;18.80;99.90;;;;;;4917029;29;20130;-66
2023/07/30 04:41:58;;;;;;;21.95;3.80;;;18.90;99.90;;;;;;4934311;29;20036;-66
2023/07/30 04:44:24;;;;;;;13.38;3.38;;;18.90;99.90;;;;;;4940634;29;20568;-67
2023/07/30 04:46:50;;;;;;;11.00;2.55;;;18.90;99.90;;;;;;4919616;29;20135;-67
2023/07/30 04:49:15;;;;;;;14.18;2.83;;;18.80;99.90;;;;;;4917261;29;20466;-66
2023/07/30 04:51:41;;;;;;;11.55;2.97;;;18.90;99.90;;;;;;4917014;29;20126;-67
2023/07/30 04:54:07;;;;;;;15.57;3.55;;;18.80;99.90;;;;;;4934028;29;20091;-66
2023/07/30 04:56:32;;;;;;;7.05;2.10;;;18.90;99.90;;;;;;4934271;29;20547;-67
2023/07/30 04:58:58;;;;;;;12.65;2.22;;;;;;;;;;4916942;29;20130;-67
2023/07/30 05:01:24;;;;;;;9.50;2.60;;;19.00;99.90;;;;;;4933828;29;20055;-66
2023/07/30 05:03:50;;;;;;;8.60;2.38;;;19.00;99.90;;;;;;4933815;29;20039;-67
2023/07/30 05:06:16;;;;;;;10.20;2.17;;;19.00;99.90;;;;;;4917005;29;20040;-67
2023/07/30 05:08:42;;;;;;;10.02;2.53;;;;;;;;;;4916830;29;20162;-67
2023/07/30 05:11:07;;;;;;;12.18;2.42;;;19.00;99.90;;;;;;4916599;29;20047;-66
2023/07/30 05:13:33;;;;;;;8.95;2.17;;;19.20;99.90;;;;;;4934083;29;20067;-67
2023/07/30 05:15:59;;;;;;;8.07;2.00;;;19.20;99.90;;;;;;4916845;29;20050;-66
2023/07/30 05:18:24;;;;;;;10.95;2.97;;;19.10;99.90;;;;;;4919362;29;20143;-67
2023/07/30 05:20:50;;;;;;;14.50;2.60;;;19.20;99.90;;;;;;4920023;29;20102;-66
2023/07/30 05:23:15;;;;;;;10.23;1.92;;;19.30;99.90;;;;;;4920215;29;20048;-67
2023/07/30 05:25:41;;;;;;;13.05;2.97;;;19.20;99.90;;;;;;4937180;29;20043;-67
2023/07/30 05:28:07;;;;;;;11.00;2.10;;;19.30;99.90;;;;;;4937631;29;20070;-67
2023/07/30 05:30:32;;;;;;;8.20;2.05;;;19.30;99.90;;;;;;4919915;29;20130;-67
2023/07/30 05:32:58;;;;;;;4.45;1.52;;;19.30;99.90;;;;;;4920096;29;20065;-66
2023/07/30 05:35:23;;;;;;;9.50;2.40;;;19.30;99.90;;;;;;4904429;29;20051;-67
2023/07/30 05:37:49;;;;;;;7.93;1.75;;;19.50;99.90;;;;;;4936956;29;20123;-66
2023/07/30 05:40:15;;;;;;;8.27;2.35;;;19.50;99.90;;;;;;4919544;29;20047;-66
2023/07/30 05:42:40;;;;;;;8.90;2.22;;;19.60;99.90;;;;;;4937006;29;20566;-67
2023/07/30 05:45:07;;;;;;;7.40;2.00;;;19.50;99.90;;;;;;4936826;29;20071;-67
2023/07/30 05:47:32;;;;;;;7.00;2.13;;;19.40;99.90;;;;;;4920008;29;20129;-67
2023/07/30 05:49:58;;;;;;;7.50;2.28;;;19.40;99.90;;;;;;4904020;29;20050;-66
2023/07/30 05:52:24;;;;;;;9.68;2.05;;;19.60;99.90;;;;;;4936545;29;20099;-67
2023/07/30 05:54:49;;;;;;;6.72;2.25;;;19.60;99.90;;;;;;4936813;29;20123;-67
2023/07/30 05:57:15;;;;;;;6.60;2.10;;;19.50;99.90;;;;;;4936715;29;20070;-66
2023/07/30 05:59:40;;;;;;;9.75;1.95;;;19.80;99.90;;;;;;4919373;29;20119;-66
2023/07/30 06:02:07;;;;;;;10.05;2.20;;;19.70;99.90;;;;;;4919573;29;20084;-67
2023/07/30 06:04:32;;;;;;;12.55;2.25;;;19.60;99.90;;;;;;4937001;29;20099;-67
2023/07/30 06:07:02;;;;;;;7.75;2.50;;;19.60;99.90;;;;;;4919587;29;20416;-67
2023/07/30 06:09:28;;;;;;;11.82;2.60;;;19.80;99.90;;;;;;4936561;29;20126;-67
2023/07/30 06:11:56;;;;;;;7.20;2.00;;;19.80;99.90;;;;;;4919091;29;20079;-66
2023/07/30 06:14:22;;;;;;;14.15;3.10;;;19.70;99.90;;;;;;4936380;29;20036;-67
2023/07/30 06:16:47;;;;;;;10.30;2.90;;;19.80;99.90;;;;;;4936366;29;20046;-67
2023/07/30 06:19:13;;;;;;;10.40;2.17;;;19.90;99.90;;;;;;4919965;29;20036;-67
2023/07/30 06:21:38;;;;;;;13.88;2.67;;;19.80;99.90;;;;;;4922193;29;20404;-67
2023/07/30 06:24:04;;;;;;;17.85;2.40;;;19.80;99.90;;;;;;4936232;29;20035;-67
2023/07/30 06:26:30;;;;;;;8.25;2.00;;;19.80;99.90;;;;;;4919486;29;20043;-67
2023/07/30 06:28:55;;;;;;;9.88;2.55;;;19.70;99.90;;;;;;4918028;29;20039;-67
2023/07/30 06:31:21;;;;;;;10.90;2.97;;;19.80;99.90;;;;;;4935816;29;20106;-68
2023/07/30 06:33:47;;;;;;;10.80;2.65;;;19.60;99.90;;;;;;4936059;29;20047;-67
2023/07/30 06:36:12;;;;;;;9.50;2.15;;;19.80;99.90;;;;;;4935876;29;20043;-67
2023/07/30 06:38:38;;;;;;;9.13;2.63;;;19.70;99.90;;;;;;4918848;29;20499;-67
2023/07/30 06:41:04;;;;;;;9.05;3.17;;;;;;;;;;4935634;29;20039;-67
2023/07/30 06:43:30;;;;;;;8.68;2.10;;;;;;;;;;4919070;29;20404;-67
2023/07/30 06:45:55;;;;;;;7.15;1.88;;;19.90;99.90;;;;;;4918633;29;20054;-67
2023/07/30 06:48:21;;;;;;;9.00;2.33;;;20.00;99.90;;;;;;4918678;29;20036;-67
2023/07/30 06:50:47;;;;;;;12.13;3.00;;;20.10;99.90;;;;;;4935359;29;20047;-67
2023/07/30 06:53:12;;;;;;;8.95;2.67;;;20.10;99.90;;;;;;4935565;29;20423;-66
2023/07/30 06:55:38;;;;;;;10.30;2.03;;;20.20;99.90;;;;;;4918662;29;20522;-66
2023/07/30 06:58:03;;;;;;;9.43;2.55;;;20.30;99.90;;;;;;4935628;29;20039;-66
2023/07/30 07:00:29;;;;;;;16.70;3.13;;;20.30;99.90;;;;;;4935194;29;20077;-67
2023/07/30 07:02:55;;;;;;;9.75;2.38;;;20.50;99.90;;;;;;4935538;29;20043;-66
2023/07/30 07:05:21;;;;;;;11.77;2.67;;;20.60;99.90;;;;;;4918463;29;20039;-67
2023/07/30 07:07:47;;;;;;;11.60;2.83;;;;;;;;;;4918252;29;20047;-66
2023/07/30 07:10:13;;;;;;;11.02;2.60;;;20.70;99.90;;;;;;4918268;29;20404;-66
2023/07/30 07:12:39;;;;;;;13.27;2.90;;;20.80;99.90;;;;;;4918222;29;20130;-66
2023/07/30 07:15:06;;;;;;;12.90;2.40;;;20.80;99.90;;;;;;4934803;29;20535;-66
2023/07/30 07:17:31;;;;;;;11.23;3.00;;;20.70;99.90;;;;;;4918373;29;20052;-67
2023/07/30 07:19:57;;;;;;;11.23;2.85;;;20.80;99.90;;;;;;4917988;29;20052;-66
2023/07/30 07:22:23;;;;;;;11.75;2.42;;;21.30;99.90;;;;;;4917949;29;20367;-66
2023/07/30 07:24:52;;;;;;;10.32;2.70;;;20.70;99.90;;;;;;4934941;29;20411;-66
2023/07/30 07:27:17;;;;;;;12.90;2.42;;;21.20;99.90;;;;;;4935073;29;20082;-66
2023/07/30 07:29:43;;;;;;;8.80;2.42;;;20.70;99.90;;;;;;4917987;29;20330;-67
2023/07/30 07:32:09;;;;;;;11.88;2.63;;;20.40;99.90;;;;;;4917823;29;20067;-67
2023/07/30 07:34:34;;;;;;;9.75;2.28;;;20.40;99.90;;;;;;4935016;29;20102;-67
2023/07/30 07:37:01;;;;;;;10.73;2.78;;;20.60;99.90;;;;;;4935013;29;20044;-66
2023/07/30 07:39:27;;;;;;;19.25;3.75;;;20.50;99.90;;;;;;4917786;29;20047;-66
2023/07/30 07:41:53;;;;;;;8.90;2.22;;;20.40;99.90;;;;;;4918078;29;20492;-67
2023/07/30 07:44:18;;;;;;;11.43;2.58;;;20.50;99.90;;;;;;4917908;29;20075;-67
2023/07/30 07:46:44;;;;;;;12.23;2.42;;;20.50;99.90;;;;;;4918273;29;20031;-67
2023/07/30 07:49:09;;;;;;;12.02;2.75;;;20.30;99.90;;;;;;4935102;29;20051;-67
2023/07/30 07:51:35;;;;;;;9.43;2.35;;;20.50;99.90;;;;;;4934935;29;20040;-68
2023/07/30 07:54:01;;;;;;;12.20;2.28;;;20.40;99.90;;;;;;4934831;29;20040;-68
2023/07/30 07:56:26;;;;;;;18.77;3.88;;;21.10;99.90;;;;;;4935094;29;20035;-67
2023/07/30 07:58:52;;;;;;;10.13;2.15;;;20.40;99.90;;;;;;4934730;29;20511;-67
2023/07/30 08:01:17;;;;;;;8.77;2.30;;;20.60;99.90;;;;;;4934974;29;20091;-68
2023/07/30 08:03:44;;;;;;;11.90;2.10;;;21.20;99.90;;;;;;4934627;29;20039;-68
2023/07/30 08:06:10;;;;;;;8.43;2.05;;;21.10;99.90;;;;;;4934859;29;20071;-68
2023/07/30 08:08:35;;;;;;;12.98;2.20;;;21.10;99.90;;;;;;4917882;29;20122;-68
2023/07/30 08:11:08;;;;;;;8.73;2.45;;;21.10;99.90;;;;;;4934443;29;20245;-68
2023/07/30 08:13:34;;;;;;;11.60;2.55;;;21.00;99.90;;;;;;4917564;29;20381;-68
2023/07/30 08:16:00;;;;;;;10.63;2.30;;;20.90;99.90;;;;;;4934228;29;20044;-68
2023/07/30 08:18:26;;;;;;;10.32;2.00;;;21.10;99.90;;;;;;4934524;29;20095;-68
2023/07/30 08:20:52;;;;;;;11.23;2.17;;;21.00;99.90;;;;;;4934478;29;20040;-68
2023/07/30 08:23:17;;;;;;;11.32;2.15;;;20.90;99.90;;;;;;4902058;29;20558;-68
2023/07/30 08:25:43;;;;;;;12.73;3.08;;;21.30;99.90;;;;;;4917721;29;20036;-68
2023/07/30 08:28:08;;;;;;;8.45;2.03;;;21.30;99.90;;;;;;4917514;29;20052;-68
2023/07/30 08:30:34;;;;;;;11.05;2.35;;;22.10;99.90;;;;;;4917088;29;20562;-68
2023/07/30 08:32:59;;;;;;;17.67;3.08;;;21.20;99.90;;;;;;4934510;29;20041;-68
2023/07/30 08:35:26;;;;;;;7.25;2.45;;;21.30;99.90;;;;;;4917200;29;20082;-68
2023/07/30 08:37:52;;;;;;;9.23;2.42;;;20.90;99.90;;;;;;4934362;29;20056;-68
2023/07/30 08:40:20;;;;;;;9.93;2.88;;;20.80;99.90;;;;;;4934204;29;20067;-68
2023/07/30 08:42:45;;;;;;;14.27;2.40;;;21.00;99.90;;;;;;4917677;29;20048;-68
2023/07/30 08:45:11;;;;;;;13.15;2.90;;;20.90;99.90;;;;;;4917141;29;20047;-68
2023/07/30 08:47:39;;;;;;;12.60;2.08;;;21.00;99.90;;;;;;4934313;29;20046;-68
2023/07/30 08:50:05;;;;;;;13.35;2.45;;;20.70;99.90;;;;;;4934081;29;20050;-68
2023/07/30 08:52:34;;;;;;;8.73;2.53;;;20.50;99.90;;;;;;4935215;29;20131;-68
2023/07/30 08:55:01;;;;;;;4.82;1.40;;;19.90;99.90;;;;;;4920867;29;20051;-68
2023/07/30 08:57:29;;;;;;;8.35;1.85;;;20.10;99.90;;;;;;4920801;29;20079;-68
2023/07/30 09:00:03;;;;;;;10.30;2.17;;;20.30;99.90;;;;;;4937686;29;20075;-68
2023/07/30 09:02:44;;;;;;;5.65;1.70;;;20.30;99.90;;;;;;4905434;29;20126;-68
2023/07/30 09:05:10;;;;;;;9.70;2.17;;;20.20;99.90;;;;;;4920298;29;20125;-68
2023/07/30 09:07:36;;;;;;;8.10;1.90;;;20.10;99.90;;;;;;4920832;29;20278;-68
2023/07/30 09:10:01;;;;;;;6.35;2.05;;;20.30;99.90;;;;;;4920516;29;20040;-68
2023/07/30 09:12:34;;;;;;;6.38;1.50;;;20.00;99.90;;;;;;4920265;29;20039;-68
2023/07/30 09:15:01;;;;;;;8.85;1.70;;;19.80;99.90;;;;;;4920207;29;20126;-66
2023/07/30 09:17:27;;;;;;;6.53;1.70;;;20.10;99.90;;;;;;4937395;29;20035;-68
2023/07/30 09:19:53;;;;;;;9.65;1.60;;;20.00;99.90;;;;;;4920348;29;20083;-68
2023/07/30 09:22:30;;;;;;;10.75;3.13;;;20.40;99.90;;;;;;4920221;29;20060;-68
2023/07/30 09:24:57;;;;;;;7.45;2.03;;;21.10;99.90;;;;;;4920170;29;20407;-68
2023/07/30 09:27:26;;;;;;;9.77;1.70;;;20.50;99.90;;;;;;4937139;29;20036;-68
2023/07/30 09:29:56;;;;;;;5.82;1.80;;;20.50;99.90;;;;;;4920249;29;20500;-69
2023/07/30 09:32:32;;;;;;;4.85;1.67;;;20.70;99.90;;;;;;4937278;29;20447;-68
2023/07/30 09:35:11;;;;;;;5.32;1.48;;;20.70;99.90;;;;;;4937114;29;20048;-68
2023/07/30 09:37:41;;;;;;;7.18;2.15;;;20.80;99.90;;;;;;4937001;29;20455;-68
2023/07/30 09:40:09;;;;;;;7.10;1.77;;;21.10;99.90;;;;;;4903966;29;20135;-68
2023/07/30 09:42:39;;;;;;;7.40;1.63;;;21.20;99.90;;;;;;4919947;29;20043;-68
2023/07/30 09:45:07;;;;;;;6.60;1.65;;;21.60;99.90;;;;;;4937422;29;20091;-68
2023/07/30 09:47:35;;;;;;;11.98;2.30;;;21.70;99.90;;;;;;4920233;29;20048;-68
2023/07/30 09:50:01;;;;;;;8.30;2.80;;;21.70;99.90;;;;;;4919855;29;20047;-68
2023/07/30 09:52:27;;;;;;;9.80;1.88;;;22.90;99.90;;;;;;4919681;29;20408;-68
2023/07/30 09:54:53;;;;;;;8.80;1.85;;;22.00;99.90;;;;;;4936932;29;20050;-68
2023/07/30 09:57:19;;;;;;;10.85;2.08;;;21.80;99.90;;;;;;4936896;29;20054;-68
2023/07/30 09:59:44;;;;;;;9.63;2.30;;;21.90;99.90;;;;;;4919633;29;20040;-68
2023/07/30 10:02:11;;;;;;;7.38;2.13;;;21.90;99.90;;;;;;4936502;29;20031;-68
2023/07/30 10:04:42;;;;;;;9.90;2.40;;;21.40;99.90;;;;;;4919389;29;20032;-69
2023/07/30 10:07:14;;;;;;;9.65;2.53;;;21.00;99.90;;;;;;4919750;29;20043;-68
2023/07/30 10:09:45;;;;;;;9.00;2.03;;;20.70;99.90;;;;;;4919661;29;20110;-68
2023/07/30 10:12:15;;;;;;;7.85;2.00;;;21.00;99.90;;;;;;4936542;29;20511;-68
2023/07/30 10:14:42;;;;;;;9.23;2.53;;;21.40;99.90;;;;;;4919358;29;20046;-68
2023/07/30 10:17:10;;;;;;;8.40;1.58;;;21.50;99.90;;;;;;4936443;29;20050;-69
2023/07/30 10:19:36;;;;;;;8.43;1.95;;;21.60;99.90;;;;;;4919285;29;20411;-68
2023/07/30 10:22:14;;;;;;;12.02;2.63;;;21.40;99.90;;;;;;4936092;29;20044;-68
2023/07/30 10:24:40;;;;;;;12.75;2.30;;;21.40;99.90;;;;;;4919279;29;20035;-68
2023/07/30 10:27:07;;;;;;;15.40;2.47;;;21.90;99.90;;;;;;4919298;29;20059;-68
2023/07/30 10:29:39;;;;;;;10.45;2.28;;;22.00;99.90;;;;;;4918995;29;20048;-68
2023/07/30 10:32:05;;;;;;;9.88;2.42;;;22.60;99.90;;;;;;4936219;29;20055;-68
2023/07/30 10:34:45;;;;;;;10.20;2.55;;;22.40;99.90;;;;;;4935967;29;20039;-68
2023/07/30 10:37:10;;;;;;;8.88;2.20;;;22.50;99.90;;;;;;4936011;29;20136;-68
2023/07/30 10:39:36;;;;;;;8.55;1.80;;;22.40;99.90;;;;;;4918737;29;20078;-68
2023/07/30 10:42:02;;;;;;;11.18;1.73;;;22.20;99.90;;;;;;4918595;29;20035;-68
2023/07/30 10:44:30;;;;;;;6.97;1.85;;;21.90;99.90;;;;;;4918742;29;20043;-68
2023/07/30 10:46:58;;;;;;;8.82;2.40;;;22.30;99.90;;;;;;4919030;29;20134;-69
2023/07/30 10:49:24;;;;;;;13.95;2.28;;;22.20;99.90;;;;;;4935874;29;20055;-68
2023/07/30 10:51:55;;;;;;;7.70;2.20;;;22.60;99.90;;;;;;4935490;29;20424;-67
2023/07/30 10:54:21;;;;;;;10.48;2.30;;;22.90;99.90;;;;;;4935685;29;20039;-68
2023/07/30 10:56:46;;;;;;;14.73;2.30;;;22.90;99.90;;;;;;4935586;29;20039;-68
2023/07/30 10:59:13;;;;;;;9.30;2.10;;;22.80;99.90;;;;;;4918509;29;20460;-68
2023/07/30 11:01:42;;;;;;;16.58;2.88;;;22.70;99.90;;;;;;4935233;29;20050;-69
2023/07/30 11:04:16;;;;;;;10.30;2.25;;;22.50;99.90;;;;;;4935803;29;20044;-68
2023/07/30 11:06:50;;;;;;;8.93;2.28;;;22.40;99.90;;;;;;4918768;29;20440;-66
2023/07/30 11:09:27;;;;;;;10.05;1.90;;;22.40;99.90;;;;;;4918680;29;20099;-68
2023/07/30 11:11:54;;;;;;;10.55;2.78;;;22.10;99.90;;;;;;4935847;29;20043;-68
2023/07/30 11:14:22;;;;;;;10.50;2.00;;;22.00;99.90;;;;;;4918498;29;20040;-68
2023/07/30 11:16:58;;;;;;;8.40;1.63;;;21.60;99.90;;;;;;4902578;29;20073;-68
2023/07/30 11:19:24;;;;;;;9.65;2.22;;;22.10;99.90;;;;;;4918506;29;20317;-69
2023/07/30 11:21:56;;;;;;;10.60;2.53;;;22.40;99.90;;;;;;4918193;29;20043;-68
2023/07/30 11:24:24;;;;;;;13.75;2.85;;;22.50;99.90;;;;;;4918037;29;20445;-68
2023/07/30 11:27:00;;;;;;;9.45;3.45;;;23.20;99.90;;;;;;4918207;29;20047;-68
2023/07/30 11:29:26;;;;;;;9.25;1.98;;;23.40;99.90;;;;;;4919237;29;20062;-68
2023/07/30 11:31:55;;;;;;;12.38;3.03;;;23.20;99.90;;;;;;4918385;29;20043;-66
2023/07/30 11:34:21;;;;;;;7.57;2.17;;;22.80;99.90;;;;;;4934814;29;20496;-66
2023/07/30 11:36:47;;;;;;;7.68;2.13;;;22.40;99.90;;;;;;4918135;29;20051;-66
2023/07/30 11:39:12;;;;;;;10.75;2.33;;;21.80;99.90;;;;;;4918206;29;20555;-66
2023/07/30 11:41:38;;;;;;;6.95;2.08;;;21.40;99.90;;;;;;4934723;29;20134;-66
2023/07/30 11:44:04;;;;;;;7.82;1.92;;;20.80;99.90;;;;;;4917810;29;20123;-66
2023/07/30 11:46:32;;;;;;;8.77;2.13;;;20.50;99.90;;;;;;4935525;29;20091;-66
2023/07/30 11:49:16;;;;;;;7.00;2.20;;;20.60;99.90;;;;;;4917753;29;20047;-67
2023/07/30 11:51:42;;;;;;;9.38;1.90;;;20.40;99.90;;;;;;4934642;29;20139;-67
2023/07/30 11:54:17;;;;;;;7.95;2.13;;;19.90;99.90;;;;;;4934893;29;20539;-67
2023/07/30 11:56:43;;;;;;;8.48;2.20;;;20.40;99.90;;;;;;4935028;29;20043;-67
2023/07/30 11:59:09;;;;;;;7.57;2.08;;;20.90;99.90;;;;;;4934739;29;20615;-67
2023/07/30 12:01:36;;;;;;;5.43;1.80;;;21.30;99.90;;;;;;4917771;29;20106;-67
2023/07/30 12:04:04;;;;;;;10.05;2.17;;;21.30;99.90;;;;;;4918101;29;20042;-66
2023/07/30 12:06:49;;;;;;;9.43;2.40;;;20.90;99.90;;;;;;4918234;29;20044;-67
2023/07/30 12:09:22;;;;;;;12.55;2.50;;;20.80;99.90;;;;;;4918190;29;20040;-67
2023/07/30 12:11:54;;;;;;;9.38;2.10;;;20.80;99.90;;;;;;4917269;29;20067;-67
2023/07/30 12:14:29;;;;;;;8.63;2.13;;;21.30;99.90;;;;;;4917367;29;20047;-67
2023/07/30 12:16:55;;;;;;;11.10;2.10;;;21.20;99.90;;;;;;4917575;29;20166;-67
2023/07/30 12:19:21;;;;;;;7.85;2.00;;;21.70;99.90;;;;;;4917373;29;20115;-67
2023/07/30 12:21:46;;;;;;;10.75;2.78;;;21.90;99.90;;;;;;4934277;29;20036;-67
2023/07/30 12:24:12;;;;;;;10.68;2.30;;;21.70;99.90;;;;;;4917360;29;20491;-67
2023/07/30 12:26:37;;;;;;;9.88;2.17;;;21.70;99.90;;;;;;4934688;29;20036;-67
2023/07/30 12:29:03;;;;;;;4.57;1.35;;;21.70;99.90;;;;;;4921377;29;20082;-67
2023/07/30 12:31:29;;;;;;;7.25;1.73;;;22.20;99.90;;;;;;4938341;29;20071;-67
2023/07/30 12:33:55;;;;;;;7.63;1.58;;;22.60;99.90;;;;;;4921123;29;20055;-68
2023/07/30 12:36:20;;;;;;;8.90;1.77;;;22.00;99.90;;;;;;4921020;29;20051;-68
2023/07/30 12:38:46;;;;;;;7.72;1.75;;;22.60;99.90;;;;;;4938946;29;20082;-68
2023/07/30 12:41:12;;;;;;;7.55;1.77;;;22.10;99.90;;;;;;4921205;29;20482;-69